Ramsey, IL (62080)

11:25 AM CDT on October 30, 2014 (GMT -0500)
St. Elmo, Ilinois | Change Station
CLOSE
Current Station
Personal Weather Station
Location: St. Elmo, IL
Elevation: 620 ft
Nearby Weather Stations
Active Advisory: Freeze Watch

Elev 620 ft 39.02 °N, 88.83 °W | Updated 15 minutes ago

Partly Cloudy
Partly Cloudy
50.1 °F
Feels Like 50.1 °F
N
3.0
Wind Variable Wind from South
Gusts 6.0 mph

Today
High -- | Low -- °F
--% Chance of Precip.
Yesterday
High -- | Low -- °F
Precip. -- in
7:21 AM 5:57 PM
Waxing Crescent, 45% visible
Pressure 30.13 in
Visibility 10.0 miles
Clouds Clear
Dew Point 41 °F
Humidity 71%
Rainfall 0.00 in
Snow Depth Not available.
UV 3 out of 12
Pollen .30 out of 12
Air Quality Not available.
Flu Activity Not available.
METAR KTAZ 301555Z AUTO 18012G15KT 10SM CLR 10/03 A3013 RMK AO2

More Conditions Fewer Conditions

Pressure 30.13 in
Visibility 10.0 miles
Clouds Clear
Dew Point 41 °F
Humidity 71%
Rainfall 0.00 in
Snow Depth Not available.
UV 3 out of 12
Pollen .30 out of 12
Air Quality Not available.
Flu Activity Not available.
METAR KTAZ 301555Z AUTO 18012G15KT 10SM CLR 10/03 A3013 RMK AO2

More Conditions Fewer Conditions

10-Day Weather Forecast

Almanac

Astronomy

Oct. 30, 2014 Rise Set
Actual Time
Civil Twilight
Nautical Twilight
Astronomical Twilight
Moon
Length of Visible Light
Length of Day
Tomorrow will be .
, % of the Moon is Illuminated

Today's Extremes

State Highs State Lows

Community

WunderPhotos

Upload Photos

1,766,398 photos uploaded!

WunderBlogs® & News

Nearby

Air Quality

  Air Quality AQ Index Pollutant
Not available.

Snow Depth

Station Depth Elevation

Earthquake Activity

City Distance Mag. Time & Date
Minimum magnitude displayed is 2.5.

Coastal Water Temperatures

Place Temperature

Nearby Weather Stations